首页
METAR-TAF:

METAR-TAF

机场 :

金曼, 亞利桑那州, 美国

纬度: 35-15-28N, 经度: 113-55-59W, 海拔: 1050米

当前天气观测

该预报发布于45分钟前的00:51 UTC
风速6节,风向西南
温度 9°C
湿度 66%
气压 1003 hPa
能見度: 16.1公里
少量云层高于7000英尺
多云层高于9000英尺
多云层高于11000英尺

METAR: KIGM 210051Z AUTO 22006KT 10SM FEW070 BKN090 BKN110 09/03 A2962 RMK AO2 RAE29 SLP993 P0001 T00890033

时间: 18:36 (01:36 UTC)


TAF: 丢失

超过4000个机场的气象观测和天气预报(METAR&TAF报告)。

可查询的气象台以黄色和红色小点在地图上表示。

将鼠标移到小点上方,可查看气象台名称。

然后点击查看天气观测和预报。

如需切换地图:点击带黑十字的绿色按钮放大地图;点击带横线的绿色按钮缩小地图;或者点击绿色箭头查看邻近地区的地图。


METAR-TAF: